sensor_id;sensor_type;location;lat;lon;timestamp;temperature;humidity
25092;DHT22;13082;52.374;4.946;2023-02-01T00:01:39;8.00;99.90
25092;DHT22;13082;52.374;4.946;2023-02-01T00:04:05;8.00;99.90
25092;DHT22;13082;52.374;4.946;2023-02-01T00:06:30;8.00;99.90
25092;DHT22;13082;52.374;4.946;2023-02-01T00:08:56;8.10;99.90
25092;DHT22;13082;52.374;4.946;2023-02-01T00:11:23;8.10;99.90
25092;DHT22;13082;52.374;4.946;2023-02-01T00:13:49;8.00;99.90
25092;DHT22;13082;52.374;4.946;2023-02-01T00:16:26;8.00;99.90
25092;DHT22;13082;52.374;4.946;2023-02-01T00:19:04;8.10;99.90
25092;DHT22;13082;52.374;4.946;2023-02-01T00:21:32;8.10;99.90
25092;DHT22;13082;52.374;4.946;2023-02-01T00:23:58;8.00;99.90
25092;DHT22;13082;52.374;4.946;2023-02-01T00:26:33;8.00;99.90
25092;DHT22;13082;52.374;4.946;2023-02-01T00:29:00;8.00;99.90
25092;DHT22;13082;52.374;4.946;2023-02-01T00:31:27;8.00;99.90
25092;DHT22;13082;52.374;4.946;2023-02-01T00:33:53;8.00;99.90
25092;DHT22;13082;52.374;4.946;2023-02-01T00:36:18;8.00;99.90
25092;DHT22;13082;52.374;4.946;2023-02-01T00:38:44;8.00;99.90
25092;DHT22;13082;52.374;4.946;2023-02-01T00:41:15;8.00;99.90
25092;DHT22;13082;52.374;4.946;2023-02-01T00:43:41;7.90;99.90
25092;DHT22;13082;52.374;4.946;2023-02-01T00:46:07;7.90;99.90
25092;DHT22;13082;52.374;4.946;2023-02-01T00:48:33;7.90;99.90
25092;DHT22;13082;52.374;4.946;2023-02-01T00:51:03;7.90;99.90
25092;DHT22;13082;52.374;4.946;2023-02-01T00:53:30;7.90;99.90
25092;DHT22;13082;52.374;4.946;2023-02-01T00:55:56;7.90;99.90
25092;DHT22;13082;52.374;4.946;2023-02-01T00:58:22;7.90;99.90
25092;DHT22;13082;52.374;4.946;2023-02-01T01:01:03;7.90;99.90
25092;DHT22;13082;52.374;4.946;2023-02-01T01:03:30;7.90;99.90
25092;DHT22;13082;52.374;4.946;2023-02-01T01:06:00;7.90;99.90
25092;DHT22;13082;52.374;4.946;2023-02-01T01:08:26;7.90;99.90
25092;DHT22;13082;52.374;4.946;2023-02-01T01:10:51;7.90;99.90
25092;DHT22;13082;52.374;4.946;2023-02-01T01:13:17;7.90;99.90
25092;DHT22;13082;52.374;4.946;2023-02-01T01:15:42;7.90;99.90
25092;DHT22;13082;52.374;4.946;2023-02-01T01:18:10;7.90;99.90
25092;DHT22;13082;52.374;4.946;2023-02-01T01:20:38;7.90;99.90
25092;DHT22;13082;52.374;4.946;2023-02-01T01:23:04;7.90;99.90
25092;DHT22;13082;52.374;4.946;2023-02-01T01:25:31;8.00;99.90
25092;DHT22;13082;52.374;4.946;2023-02-01T01:27:56;8.00;99.90
25092;DHT22;13082;52.374;4.946;2023-02-01T01:30:22;8.00;99.90
25092;DHT22;13082;52.374;4.946;2023-02-01T01:32:48;8.00;99.90
25092;DHT22;13082;52.374;4.946;2023-02-01T01:35:14;8.00;99.90
25092;DHT22;13082;52.374;4.946;2023-02-01T01:37:39;8.00;99.90
25092;DHT22;13082;52.374;4.946;2023-02-01T01:40:06;8.00;99.90
25092;DHT22;13082;52.374;4.946;2023-02-01T01:42:40;8.10;99.90
25092;DHT22;13082;52.374;4.946;2023-02-01T01:45:30;8.10;99.90
25092;DHT22;13082;52.374;4.946;2023-02-01T01:47:58;8.10;99.90
25092;DHT22;13082;52.374;4.946;2023-02-01T01:50:31;8.10;99.90
25092;DHT22;13082;52.374;4.946;2023-02-01T01:53:01;8.10;99.90
25092;DHT22;13082;52.374;4.946;2023-02-01T01:55:32;8.10;99.90
25092;DHT22;13082;52.374;4.946;2023-02-01T01:58:04;8.10;99.90
25092;DHT22;13082;52.374;4.946;2023-02-01T02:00:31;8.10;99.90
25092;DHT22;13082;52.374;4.946;2023-02-01T02:03:02;8.10;99.90
25092;DHT22;13082;52.374;4.946;2023-02-01T02:05:30;8.10;99.90
25092;DHT22;13082;52.374;4.946;2023-02-01T02:07:59;8.10;99.90
25092;DHT22;13082;52.374;4.946;2023-02-01T02:10:27;8.10;99.90
25092;DHT22;13082;52.374;4.946;2023-02-01T02:13:13;8.10;99.90
25092;DHT22;13082;52.374;4.946;2023-02-01T02:15:43;8.10;99.90
25092;DHT22;13082;52.374;4.946;2023-02-01T02:18:30;8.10;99.90
25092;DHT22;13082;52.374;4.946;2023-02-01T02:21:15;8.10;99.90
25092;DHT22;13082;52.374;4.946;2023-02-01T02:37:43;8.00;99.90
25092;DHT22;13082;52.374;4.946;2023-02-01T02:40:52;8.00;99.90
25092;DHT22;13082;52.374;4.946;2023-02-01T02:43:57;8.00;99.90
25092;DHT22;13082;52.374;4.946;2023-02-01T02:46:40;8.00;99.90
25092;DHT22;13082;52.374;4.946;2023-02-01T02:49:36;8.00;99.90
25092;DHT22;13082;52.374;4.946;2023-02-01T02:52:12;8.00;99.90
25092;DHT22;13082;52.374;4.946;2023-02-01T02:54:59;7.90;99.90
25092;DHT22;13082;52.374;4.946;2023-02-01T02:57:30;7.90;99.90
25092;DHT22;13082;52.374;4.946;2023-02-01T03:00:19;7.90;99.90
25092;DHT22;13082;52.374;4.946;2023-02-01T03:03:05;8.00;99.90
25092;DHT22;13082;52.374;4.946;2023-02-01T03:05:50;7.90;99.90
25092;DHT22;13082;52.374;4.946;2023-02-01T03:08:17;7.90;99.90
25092;DHT22;13082;52.374;4.946;2023-02-01T03:13:52;7.80;99.90
25092;DHT22;13082;52.374;4.946;2023-02-01T03:19:00;7.80;99.90
25092;DHT22;13082;52.374;4.946;2023-02-01T03:21:45;7.80;99.90
25092;DHT22;13082;52.374;4.946;2023-02-01T03:27:27;7.70;99.90
25092;DHT22;13082;52.374;4.946;2023-02-01T03:30:27;7.70;99.90
25092;DHT22;13082;52.374;4.946;2023-02-01T03:32:56;7.70;99.90
25092;DHT22;13082;52.374;4.946;2023-02-01T03:38:07;7.80;99.90
25092;DHT22;13082;52.374;4.946;2023-02-01T03:40:36;7.80;99.90
25092;DHT22;13082;52.374;4.946;2023-02-01T03:43:05;7.80;99.90
25092;DHT22;13082;52.374;4.946;2023-02-01T03:45:39;7.80;99.90
25092;DHT22;13082;52.374;4.946;2023-02-01T03:48:08;7.90;99.90
25092;DHT22;13082;52.374;4.946;2023-02-01T03:50:35;7.80;99.90
25092;DHT22;13082;52.374;4.946;2023-02-01T03:53:03;7.90;99.90
25092;DHT22;13082;52.374;4.946;2023-02-01T03:55:31;7.90;99.90
25092;DHT22;13082;52.374;4.946;2023-02-01T03:58:04;7.80;99.90
25092;DHT22;13082;52.374;4.946;2023-02-01T04:00:31;7.90;99.90
25092;DHT22;13082;52.374;4.946;2023-02-01T04:02:57;7.80;99.90
25092;DHT22;13082;52.374;4.946;2023-02-01T04:05:23;7.80;99.90
25092;DHT22;13082;52.374;4.946;2023-02-01T04:07:48;7.80;99.90
25092;DHT22;13082;52.374;4.946;2023-02-01T04:10:14;7.80;99.90
25092;DHT22;13082;52.374;4.946;2023-02-01T04:12:40;7.80;99.90
25092;DHT22;13082;52.374;4.946;2023-02-01T04:15:06;7.80;99.90
25092;DHT22;13082;52.374;4.946;2023-02-01T04:17:32;7.80;99.90
25092;DHT22;13082;52.374;4.946;2023-02-01T04:19:58;7.80;99.90
25092;DHT22;13082;52.374;4.946;2023-02-01T04:22:23;7.80;99.90
25092;DHT22;13082;52.374;4.946;2023-02-01T04:24:49;7.80;99.90
25092;DHT22;13082;52.374;4.946;2023-02-01T04:27:15;7.70;99.90
25092;DHT22;13082;52.374;4.946;2023-02-01T04:29:41;7.80;99.90
25092;DHT22;13082;52.374;4.946;2023-02-01T04:32:06;7.70;99.90
25092;DHT22;13082;52.374;4.946;2023-02-01T04:34:32;7.60;99.90
25092;DHT22;13082;52.374;4.946;2023-02-01T04:36:57;7.70;99.90
25092;DHT22;13082;52.374;4.946;2023-02-01T04:39:23;7.70;99.90
25092;DHT22;13082;52.374;4.946;2023-02-01T04:41:49;7.70;99.90
25092;DHT22;13082;52.374;4.946;2023-02-01T04:44:18;7.70;99.90
25092;DHT22;13082;52.374;4.946;2023-02-01T04:46:45;7.70;99.90
25092;DHT22;13082;52.374;4.946;2023-02-01T04:49:11;7.70;99.90
25092;DHT22;13082;52.374;4.946;2023-02-01T04:51:38;7.70;99.90
25092;DHT22;13082;52.374;4.946;2023-02-01T04:54:03;7.70;99.90
25092;DHT22;13082;52.374;4.946;2023-02-01T04:56:29;7.70;99.90
25092;DHT22;13082;52.374;4.946;2023-02-01T04:58:54;7.70;99.90
25092;DHT22;13082;52.374;4.946;2023-02-01T05:01:21;7.60;99.90
25092;DHT22;13082;52.374;4.946;2023-02-01T05:03:47;7.70;99.90
25092;DHT22;13082;52.374;4.946;2023-02-01T05:06:13;7.70;99.90
25092;DHT22;13082;52.374;4.946;2023-02-01T05:08:38;7.70;99.90
25092;DHT22;13082;52.374;4.946;2023-02-01T05:11:04;7.70;99.90
25092;DHT22;13082;52.374;4.946;2023-02-01T05:13:30;7.70;99.90
25092;DHT22;13082;52.374;4.946;2023-02-01T05:16:14;7.70;99.90
25092;DHT22;13082;52.374;4.946;2023-02-01T05:18:40;7.70;99.90
25092;DHT22;13082;52.374;4.946;2023-02-01T05:21:06;7.70;99.90
25092;DHT22;13082;52.374;4.946;2023-02-01T05:23:31;7.70;99.90
25092;DHT22;13082;52.374;4.946;2023-02-01T05:26:01;7.70;99.90
25092;DHT22;13082;52.374;4.946;2023-02-01T05:28:28;7.70;99.90
25092;DHT22;13082;52.374;4.946;2023-02-01T05:30:54;7.70;99.90
25092;DHT22;13082;52.374;4.946;2023-02-01T05:33:20;7.70;99.90
25092;DHT22;13082;52.374;4.946;2023-02-01T05:35:45;7.80;99.90
25092;DHT22;13082;52.374;4.946;2023-02-01T05:38:11;7.80;99.90
25092;DHT22;13082;52.374;4.946;2023-02-01T05:40:37;7.80;99.90
25092;DHT22;13082;52.374;4.946;2023-02-01T05:43:02;7.80;99.90
25092;DHT22;13082;52.374;4.946;2023-02-01T05:45:28;7.80;99.90
25092;DHT22;13082;52.374;4.946;2023-02-01T05:47:53;7.80;99.90
25092;DHT22;13082;52.374;4.946;2023-02-01T05:50:19;7.80;99.90
25092;DHT22;13082;52.374;4.946;2023-02-01T05:52:45;7.80;99.90
25092;DHT22;13082;52.374;4.946;2023-02-01T05:55:10;7.80;99.90
25092;DHT22;13082;52.374;4.946;2023-02-01T05:57:36;7.80;99.90
25092;DHT22;13082;52.374;4.946;2023-02-01T06:00:02;7.80;99.90
25092;DHT22;13082;52.374;4.946;2023-02-01T06:02:28;7.80;99.90
25092;DHT22;13082;52.374;4.946;2023-02-01T06:04:54;7.80;99.90
25092;DHT22;13082;52.374;4.946;2023-02-01T06:07:19;7.70;99.90
25092;DHT22;13082;52.374;4.946;2023-02-01T06:09:45;7.70;99.90
25092;DHT22;13082;52.374;4.946;2023-02-01T06:12:10;7.70;99.90
25092;DHT22;13082;52.374;4.946;2023-02-01T06:14:36;7.60;99.90
25092;DHT22;13082;52.374;4.946;2023-02-01T06:17:02;7.60;99.90
25092;DHT22;13082;52.374;4.946;2023-02-01T06:19:28;7.60;99.90
25092;DHT22;13082;52.374;4.946;2023-02-01T06:21:54;7.60;99.90
25092;DHT22;13082;52.374;4.946;2023-02-01T06:24:19;7.50;99.90
25092;DHT22;13082;52.374;4.946;2023-02-01T06:26:45;7.50;99.90
25092;DHT22;13082;52.374;4.946;2023-02-01T06:29:11;7.50;99.90
25092;DHT22;13082;52.374;4.946;2023-02-01T06:31:37;7.50;99.90
25092;DHT22;13082;52.374;4.946;2023-02-01T06:34:02;7.50;99.90
25092;DHT22;13082;52.374;4.946;2023-02-01T06:36:29;7.50;99.90
25092;DHT22;13082;52.374;4.946;2023-02-01T06:38:56;7.50;99.90
25092;DHT22;13082;52.374;4.946;2023-02-01T06:41:22;7.50;99.90
25092;DHT22;13082;52.374;4.946;2023-02-01T06:43:48;7.60;99.90
25092;DHT22;13082;52.374;4.946;2023-02-01T06:46:14;7.60;99.90
25092;DHT22;13082;52.374;4.946;2023-02-01T06:48:40;7.60;99.90
25092;DHT22;13082;52.374;4.946;2023-02-01T06:51:15;7.60;99.90
25092;DHT22;13082;52.374;4.946;2023-02-01T06:53:43;7.60;99.90
25092;DHT22;13082;52.374;4.946;2023-02-01T06:56:08;7.60;99.90
25092;DHT22;13082;52.374;4.946;2023-02-01T06:58:34;7.60;99.90
25092;DHT22;13082;52.374;4.946;2023-02-01T07:01:07;7.60;99.90
25092;DHT22;13082;52.374;4.946;2023-02-01T07:03:33;7.50;99.90
25092;DHT22;13082;52.374;4.946;2023-02-01T07:05:59;7.60;99.90
25092;DHT22;13082;52.374;4.946;2023-02-01T07:08:26;7.60;99.90
25092;DHT22;13082;52.374;4.946;2023-02-01T07:10:52;7.60;99.90
25092;DHT22;13082;52.374;4.946;2023-02-01T07:13:18;7.60;99.90
25092;DHT22;13082;52.374;4.946;2023-02-01T07:15:44;7.60;99.90
25092;DHT22;13082;52.374;4.946;2023-02-01T07:18:12;7.60;99.90
25092;DHT22;13082;52.374;4.946;2023-02-01T07:20:39;7.60;99.90
25092;DHT22;13082;52.374;4.946;2023-02-01T07:23:05;7.60;99.90
25092;DHT22;13082;52.374;4.946;2023-02-01T07:25:31;7.60;99.90
25092;DHT22;13082;52.374;4.946;2023-02-01T07:27:57;7.60;99.90
25092;DHT22;13082;52.374;4.946;2023-02-01T07:30:23;7.60;99.90
25092;DHT22;13082;52.374;4.946;2023-02-01T07:32:48;7.60;99.90
25092;DHT22;13082;52.374;4.946;2023-02-01T07:35:14;7.60;99.90
25092;DHT22;13082;52.374;4.946;2023-02-01T07:37:40;7.50;99.90
25092;DHT22;13082;52.374;4.946;2023-02-01T07:40:06;7.50;99.90
25092;DHT22;13082;52.374;4.946;2023-02-01T07:42:32;7.60;99.90
25092;DHT22;13082;52.374;4.946;2023-02-01T07:44:57;7.60;99.90
25092;DHT22;13082;52.374;4.946;2023-02-01T07:47:23;7.60;99.90
25092;DHT22;13082;52.374;4.946;2023-02-01T07:49:49;7.50;99.90
25092;DHT22;13082;52.374;4.946;2023-02-01T07:52:14;7.60;99.90
25092;DHT22;13082;52.374;4.946;2023-02-01T07:54:43;7.60;99.90
25092;DHT22;13082;52.374;4.946;2023-02-01T07:57:09;7.50;99.90
25092;DHT22;13082;52.374;4.946;2023-02-01T07:59:36;7.60;99.90
25092;DHT22;13082;52.374;4.946;2023-02-01T08:02:22;7.60;99.90
25092;DHT22;13082;52.374;4.946;2023-02-01T08:04:47;7.60;99.90
25092;DHT22;13082;52.374;4.946;2023-02-01T08:07:13;7.60;99.90
25092;DHT22;13082;52.374;4.946;2023-02-01T08:09:39;7.60;99.90
25092;DHT22;13082;52.374;4.946;2023-02-01T08:12:04;7.70;99.90
25092;DHT22;13082;52.374;4.946;2023-02-01T08:14:30;7.70;99.90
25092;DHT22;13082;52.374;4.946;2023-02-01T08:16:56;7.80;99.90
25092;DHT22;13082;52.374;4.946;2023-02-01T08:19:21;7.80;99.90
25092;DHT22;13082;52.374;4.946;2023-02-01T08:21:47;7.80;99.90
25092;DHT22;13082;52.374;4.946;2023-02-01T08:24:14;7.80;99.90
25092;DHT22;13082;52.374;4.946;2023-02-01T08:26:39;7.80;99.90
25092;DHT22;13082;52.374;4.946;2023-02-01T08:29:06;7.80;99.90
25092;DHT22;13082;52.374;4.946;2023-02-01T08:31:32;7.90;99.90
25092;DHT22;13082;52.374;4.946;2023-02-01T08:34:00;7.90;99.90
25092;DHT22;13082;52.374;4.946;2023-02-01T08:36:28;8.00;99.90
25092;DHT22;13082;52.374;4.946;2023-02-01T08:38:54;8.00;99.90
25092;DHT22;13082;52.374;4.946;2023-02-01T08:41:26;8.00;99.90
25092;DHT22;13082;52.374;4.946;2023-02-01T08:43:52;8.00;99.90
25092;DHT22;13082;52.374;4.946;2023-02-01T08:46:19;8.10;99.90
25092;DHT22;13082;52.374;4.946;2023-02-01T08:48:46;8.10;99.90
25092;DHT22;13082;52.374;4.946;2023-02-01T08:51:14;8.10;99.90
25092;DHT22;13082;52.374;4.946;2023-02-01T08:53:40;8.10;99.90
25092;DHT22;13082;52.374;4.946;2023-02-01T08:56:07;8.10;99.90
25092;DHT22;13082;52.374;4.946;2023-02-01T08:58:33;8.10;99.90
25092;DHT22;13082;52.374;4.946;2023-02-01T09:01:25;8.10;99.90
25092;DHT22;13082;52.374;4.946;2023-02-01T09:03:50;8.20;99.90
25092;DHT22;13082;52.374;4.946;2023-02-01T09:06:16;8.10;99.90
25092;DHT22;13082;52.374;4.946;2023-02-01T09:08:42;8.10;99.90
25092;DHT22;13082;52.374;4.946;2023-02-01T09:11:18;8.10;99.90
25092;DHT22;13082;52.374;4.946;2023-02-01T09:13:44;8.10;99.90
25092;DHT22;13082;52.374;4.946;2023-02-01T09:16:11;8.10;99.90
25092;DHT22;13082;52.374;4.946;2023-02-01T09:18:36;8.10;99.90
25092;DHT22;13082;52.374;4.946;2023-02-01T09:21:06;8.00;99.90
25092;DHT22;13082;52.374;4.946;2023-02-01T09:23:33;8.00;99.90
25092;DHT22;13082;52.374;4.946;2023-02-01T09:26:03;8.00;99.90
25092;DHT22;13082;52.374;4.946;2023-02-01T09:28:29;8.00;99.90
25092;DHT22;13082;52.374;4.946;2023-02-01T09:30:59;8.00;99.90
25092;DHT22;13082;52.374;4.946;2023-02-01T09:33:27;8.00;99.90
25092;DHT22;13082;52.374;4.946;2023-02-01T09:35:58;8.00;99.90
25092;DHT22;13082;52.374;4.946;2023-02-01T09:38:23;8.00;99.90
25092;DHT22;13082;52.374;4.946;2023-02-01T09:40:51;8.00;99.90
25092;DHT22;13082;52.374;4.946;2023-02-01T09:46:18;8.00;99.90
25092;DHT22;13082;52.374;4.946;2023-02-01T09:48:46;8.00;99.90
25092;DHT22;13082;52.374;4.946;2023-02-01T09:51:36;8.00;99.90
25092;DHT22;13082;52.374;4.946;2023-02-01T09:54:09;8.00;99.90
25092;DHT22;13082;52.374;4.946;2023-02-01T09:56:46;7.90;99.90
25092;DHT22;13082;52.374;4.946;2023-02-01T10:02:03;7.80;99.90
25092;DHT22;13082;52.374;4.946;2023-02-01T10:04:30;7.70;99.90
25092;DHT22;13082;52.374;4.946;2023-02-01T10:13:17;7.60;99.90
25092;DHT22;13082;52.374;4.946;2023-02-01T10:24:10;7.70;99.90
25092;DHT22;13082;52.374;4.946;2023-02-01T10:26:39;7.70;99.90
25092;DHT22;13082;52.374;4.946;2023-02-01T10:29:18;7.70;99.90
25092;DHT22;13082;52.374;4.946;2023-02-01T10:31:44;7.80;99.90
25092;DHT22;13082;52.374;4.946;2023-02-01T10:34:39;7.80;99.90
25092;DHT22;13082;52.374;4.946;2023-02-01T10:37:23;7.90;99.90
25092;DHT22;13082;52.374;4.946;2023-02-01T10:39:52;7.90;99.90
25092;DHT22;13082;52.374;4.946;2023-02-01T10:42:20;8.00;99.90
25092;DHT22;13082;52.374;4.946;2023-02-01T10:44:47;8.00;99.90
25092;DHT22;13082;52.374;4.946;2023-02-01T10:47:14;8.00;99.90
25092;DHT22;13082;52.374;4.946;2023-02-01T10:52:39;8.00;99.90
25092;DHT22;13082;52.374;4.946;2023-02-01T10:55:36;8.10;99.90
25092;DHT22;13082;52.374;4.946;2023-02-01T10:58:14;8.00;99.90
25092;DHT22;13082;52.374;4.946;2023-02-01T11:01:07;8.00;99.90
25092;DHT22;13082;52.374;4.946;2023-02-01T11:03:41;8.00;99.90
25092;DHT22;13082;52.374;4.946;2023-02-01T11:06:26;8.00;99.90
25092;DHT22;13082;52.374;4.946;2023-02-01T11:08:54;8.10;99.90
25092;DHT22;13082;52.374;4.946;2023-02-01T11:11:21;8.10;99.90
25092;DHT22;13082;52.374;4.946;2023-02-01T11:13:57;8.20;99.90
25092;DHT22;13082;52.374;4.946;2023-02-01T11:16:30;8.20;99.90
25092;DHT22;13082;52.374;4.946;2023-02-01T11:18:58;8.20;99.90
25092;DHT22;13082;52.374;4.946;2023-02-01T11:21:23;8.20;99.90
25092;DHT22;13082;52.374;4.946;2023-02-01T11:23:49;8.20;99.90
25092;DHT22;13082;52.374;4.946;2023-02-01T11:26:26;8.10;99.90
25092;DHT22;13082;52.374;4.946;2023-02-01T11:28:57;8.20;99.90
25092;DHT22;13082;52.374;4.946;2023-02-01T11:31:25;8.20;99.90
25092;DHT22;13082;52.374;4.946;2023-02-01T11:34:04;8.20;99.90
25092;DHT22;13082;52.374;4.946;2023-02-01T11:36:32;8.20;99.90
25092;DHT22;13082;52.374;4.946;2023-02-01T11:39:23;8.20;99.90
25092;DHT22;13082;52.374;4.946;2023-02-01T11:42:05;8.30;99.90
25092;DHT22;13082;52.374;4.946;2023-02-01T11:44:37;8.40;99.90
25092;DHT22;13082;52.374;4.946;2023-02-01T11:49:59;8.40;99.90
25092;DHT22;13082;52.374;4.946;2023-02-01T11:52:48;8.40;99.90
25092;DHT22;13082;52.374;4.946;2023-02-01T12:01:24;8.50;99.90
25092;DHT22;13082;52.374;4.946;2023-02-01T12:06:57;8.50;99.90
25092;DHT22;13082;52.374;4.946;2023-02-01T12:37:18;8.70;99.90
25092;DHT22;13082;52.374;4.946;2023-02-01T12:42:48;8.80;99.90
25092;DHT22;13082;52.374;4.946;2023-02-01T12:45:19;8.90;99.90
25092;DHT22;13082;52.374;4.946;2023-02-01T12:47:52;8.90;99.90
25092;DHT22;13082;52.374;4.946;2023-02-01T12:50:35;8.90;99.90
25092;DHT22;13082;52.374;4.946;2023-02-01T12:53:27;8.90;99.90
25092;DHT22;13082;52.374;4.946;2023-02-01T12:55:57;8.90;99.90
25092;DHT22;13082;52.374;4.946;2023-02-01T12:58:32;8.90;99.90
25092;DHT22;13082;52.374;4.946;2023-02-01T13:01:05;8.90;99.90
25092;DHT22;13082;52.374;4.946;2023-02-01T13:03:35;8.90;99.90
25092;DHT22;13082;52.374;4.946;2023-02-01T13:06:13;8.80;99.90
25092;DHT22;13082;52.374;4.946;2023-02-01T13:11:12;8.80;99.90
25092;DHT22;13082;52.374;4.946;2023-02-01T13:14:03;8.80;99.90
25092;DHT22;13082;52.374;4.946;2023-02-01T13:16:40;8.80;99.90
25092;DHT22;13082;52.374;4.946;2023-02-01T13:19:37;8.80;99.90
25092;DHT22;13082;52.374;4.946;2023-02-01T13:22:30;8.80;99.90
25092;DHT22;13082;52.374;4.946;2023-02-01T13:25:10;8.80;99.90
25092;DHT22;13082;52.374;4.946;2023-02-01T13:27:37;8.90;99.90
25092;DHT22;13082;52.374;4.946;2023-02-01T13:30:16;8.90;99.90
25092;DHT22;13082;52.374;4.946;2023-02-01T13:35:51;9.00;99.90
25092;DHT22;13082;52.374;4.946;2023-02-01T13:43:44;9.00;99.90
25092;DHT22;13082;52.374;4.946;2023-02-01T13:46:13;9.10;99.90
25092;DHT22;13082;52.374;4.946;2023-02-01T13:48:50;9.10;99.90
25092;DHT22;13082;52.374;4.946;2023-02-01T13:53:57;9.10;99.90
25092;DHT22;13082;52.374;4.946;2023-02-01T13:56:24;9.10;99.90
25092;DHT22;13082;52.374;4.946;2023-02-01T13:58:50;9.10;99.90
25092;DHT22;13082;52.374;4.946;2023-02-01T14:03:58;9.10;99.90
25092;DHT22;13082;52.374;4.946;2023-02-01T14:16:39;9.20;99.90
25092;DHT22;13082;52.374;4.946;2023-02-01T14:19:17;9.20;99.90
25092;DHT22;13082;52.374;4.946;2023-02-01T14:21:53;9.20;99.90
25092;DHT22;13082;52.374;4.946;2023-02-01T14:24:27;9.20;99.90
25092;DHT22;13082;52.374;4.946;2023-02-01T14:26:55;9.20;99.90
25092;DHT22;13082;52.374;4.946;2023-02-01T14:29:36;9.20;99.90
25092;DHT22;13082;52.374;4.946;2023-02-01T14:32:17;9.10;99.90
25092;DHT22;13082;52.374;4.946;2023-02-01T14:42:42;8.30;99.90
25092;DHT22;13082;52.374;4.946;2023-02-01T14:58:40;8.40;99.90
25092;DHT22;13082;52.374;4.946;2023-02-01T15:01:27;8.50;99.90
25092;DHT22;13082;52.374;4.946;2023-02-01T15:04:13;8.50;99.90
25092;DHT22;13082;52.374;4.946;2023-02-01T15:06:57;8.60;99.90
25092;DHT22;13082;52.374;4.946;2023-02-01T15:09:35;8.60;99.90
25092;DHT22;13082;52.374;4.946;2023-02-01T15:14:42;8.60;99.90
25092;DHT22;13082;52.374;4.946;2023-02-01T15:17:24;8.70;99.90
25092;DHT22;13082;52.374;4.946;2023-02-01T15:19:57;8.70;99.90
25092;DHT22;13082;52.374;4.946;2023-02-01T15:22:23;8.70;99.90
25092;DHT22;13082;52.374;4.946;2023-02-01T15:24:56;8.70;99.90
25092;DHT22;13082;52.374;4.946;2023-02-01T15:27:23;8.70;99.90
25092;DHT22;13082;52.374;4.946;2023-02-01T15:29:48;8.80;99.90
25092;DHT22;13082;52.374;4.946;2023-02-01T15:32:35;8.70;99.90
25092;DHT22;13082;52.374;4.946;2023-02-01T15:35:01;8.70;99.90
25092;DHT22;13082;52.374;4.946;2023-02-01T15:37:28;8.70;99.90
25092;DHT22;13082;52.374;4.946;2023-02-01T15:42:53;8.80;99.90
25092;DHT22;13082;52.374;4.946;2023-02-01T15:45:21;8.70;99.90
25092;DHT22;13082;52.374;4.946;2023-02-01T15:47:49;8.80;99.90
25092;DHT22;13082;52.374;4.946;2023-02-01T15:50:19;8.80;99.90
25092;DHT22;13082;52.374;4.946;2023-02-01T15:52:48;8.70;99.90
25092;DHT22;13082;52.374;4.946;2023-02-01T15:55:35;8.70;99.90
25092;DHT22;13082;52.374;4.946;2023-02-01T15:58:16;8.80;99.90
25092;DHT22;13082;52.374;4.946;2023-02-01T16:03:37;8.70;99.90
25092;DHT22;13082;52.374;4.946;2023-02-01T16:06:26;8.80;99.90
25092;DHT22;13082;52.374;4.946;2023-02-01T16:08:54;8.80;99.90
25092;DHT22;13082;52.374;4.946;2023-02-01T16:13:48;8.80;99.90
25092;DHT22;13082;52.374;4.946;2023-02-01T16:16:14;8.80;99.90
25092;DHT22;13082;52.374;4.946;2023-02-01T16:18:40;8.80;99.90
25092;DHT22;13082;52.374;4.946;2023-02-01T16:21:07;8.80;99.90
25092;DHT22;13082;52.374;4.946;2023-02-01T16:23:37;8.90;99.90
25092;DHT22;13082;52.374;4.946;2023-02-01T16:26:03;8.80;99.90
25092;DHT22;13082;52.374;4.946;2023-02-01T16:28:29;8.90;99.90
25092;DHT22;13082;52.374;4.946;2023-02-01T16:30:55;8.80;99.90
25092;DHT22;13082;52.374;4.946;2023-02-01T16:33:21;8.90;99.90
25092;DHT22;13082;52.374;4.946;2023-02-01T16:35:48;8.90;99.90
25092;DHT22;13082;52.374;4.946;2023-02-01T16:38:16;8.90;99.90
25092;DHT22;13082;52.374;4.946;2023-02-01T16:40:44;8.90;99.90
25092;DHT22;13082;52.374;4.946;2023-02-01T16:43:19;8.90;99.90
25092;DHT22;13082;52.374;4.946;2023-02-01T16:45:46;8.90;99.90
25092;DHT22;13082;52.374;4.946;2023-02-01T16:48:50;8.90;99.90
25092;DHT22;13082;52.374;4.946;2023-02-01T16:51:16;8.90;99.90
25092;DHT22;13082;52.374;4.946;2023-02-01T16:53:44;8.90;99.90
25092;DHT22;13082;52.374;4.946;2023-02-01T16:56:20;8.90;99.90
25092;DHT22;13082;52.374;4.946;2023-02-01T16:58:45;8.90;99.90
25092;DHT22;13082;52.374;4.946;2023-02-01T17:01:14;8.90;99.90
25092;DHT22;13082;52.374;4.946;2023-02-01T17:03:39;8.90;99.90
25092;DHT22;13082;52.374;4.946;2023-02-01T17:06:07;8.90;99.90
25092;DHT22;13082;52.374;4.946;2023-02-01T17:08:45;8.90;99.90
25092;DHT22;13082;52.374;4.946;2023-02-01T17:11:13;8.80;99.90
25092;DHT22;13082;52.374;4.946;2023-02-01T17:13:40;8.90;99.90
25092;DHT22;13082;52.374;4.946;2023-02-01T17:16:20;8.90;99.90
25092;DHT22;13082;52.374;4.946;2023-02-01T17:19:02;8.90;99.90
25092;DHT22;13082;52.374;4.946;2023-02-01T17:21:33;8.90;99.90
25092;DHT22;13082;52.374;4.946;2023-02-01T17:24:01;8.90;99.90
25092;DHT22;13082;52.374;4.946;2023-02-01T17:26:26;8.80;99.90
25092;DHT22;13082;52.374;4.946;2023-02-01T17:28:52;8.90;99.90
25092;DHT22;13082;52.374;4.946;2023-02-01T17:31:18;8.90;99.90
25092;DHT22;13082;52.374;4.946;2023-02-01T17:33:44;8.90;99.90
25092;DHT22;13082;52.374;4.946;2023-02-01T17:36:13;8.90;99.90
25092;DHT22;13082;52.374;4.946;2023-02-01T17:38:40;8.90;99.90
25092;DHT22;13082;52.374;4.946;2023-02-01T17:41:06;8.90;99.90
25092;DHT22;13082;52.374;4.946;2023-02-01T17:43:34;8.90;99.90
25092;DHT22;13082;52.374;4.946;2023-02-01T17:46:14;8.80;99.90
25092;DHT22;13082;52.374;4.946;2023-02-01T17:48:41;8.50;99.90
25092;DHT22;13082;52.374;4.946;2023-02-01T17:51:25;8.30;99.90
25092;DHT22;13082;52.374;4.946;2023-02-01T17:53:52;8.20;99.90
25092;DHT22;13082;52.374;4.946;2023-02-01T17:56:23;8.10;99.90
25092;DHT22;13082;52.374;4.946;2023-02-01T17:58:49;8.00;99.90
25092;DHT22;13082;52.374;4.946;2023-02-01T18:01:20;7.90;99.90
25092;DHT22;13082;52.374;4.946;2023-02-01T18:03:46;7.80;99.90
25092;DHT22;13082;52.374;4.946;2023-02-01T18:06:15;7.80;99.90
25092;DHT22;13082;52.374;4.946;2023-02-01T18:08:41;7.80;99.90
25092;DHT22;13082;52.374;4.946;2023-02-01T18:11:16;7.80;99.90
25092;DHT22;13082;52.374;4.946;2023-02-01T18:13:42;8.00;99.90
25092;DHT22;13082;52.374;4.946;2023-02-01T18:16:26;8.10;99.90
25092;DHT22;13082;52.374;4.946;2023-02-01T18:18:52;8.20;99.90
25092;DHT22;13082;52.374;4.946;2023-02-01T18:21:19;8.20;99.90
25092;DHT22;13082;52.374;4.946;2023-02-01T18:23:46;8.30;99.90
25092;DHT22;13082;52.374;4.946;2023-02-01T18:26:14;8.40;99.90
25092;DHT22;13082;52.374;4.946;2023-02-01T18:28:40;8.40;99.90
25092;DHT22;13082;52.374;4.946;2023-02-01T18:31:13;8.50;99.90
25092;DHT22;13082;52.374;4.946;2023-02-01T18:33:42;8.50;99.90
25092;DHT22;13082;52.374;4.946;2023-02-01T18:36:11;8.50;99.90